createdAt,value
2018-11-03T00:02:39.835Z,23.8
2018-11-03T00:12:39.059Z,23.8
2018-11-03T00:22:38.270Z,23.8
2018-11-03T00:32:37.495Z,23.8
2018-11-03T00:42:36.722Z,23.8
2018-11-03T00:52:35.928Z,23.8
2018-11-03T01:02:35.143Z,23.8
2018-11-03T01:12:34.369Z,23.8
2018-11-03T01:22:33.598Z,23.8
2018-11-03T01:32:32.878Z,23.8
2018-11-03T01:42:32.020Z,23.8
2018-11-03T01:52:31.233Z,23.8
2018-11-03T02:02:30.451Z,23.8
2018-11-03T02:12:29.669Z,23.8
2018-11-03T02:22:28.894Z,23.8
2018-11-03T02:32:28.100Z,23.8
2018-11-03T02:42:27.323Z,23.8
2018-11-03T02:52:26.536Z,23.8
2018-11-03T03:02:25.759Z,23.7
2018-11-03T03:12:24.973Z,23.7
2018-11-03T03:22:24.189Z,23.7
2018-11-03T03:32:23.411Z,23.7
2018-11-03T03:42:22.622Z,23.7
2018-11-03T03:52:21.843Z,23.6
2018-11-03T04:02:21.059Z,23.7
2018-11-03T04:12:20.274Z,23.6
2018-11-03T04:22:19.486Z,23.6
2018-11-03T04:32:18.755Z,23.6
2018-11-03T04:42:17.922Z,23.6
2018-11-03T04:52:17.142Z,23.6
2018-11-03T05:02:16.359Z,23.6
2018-11-03T05:12:15.571Z,23.6
2018-11-03T05:22:14.794Z,23.6
2018-11-03T05:32:14.004Z,23.6
2018-11-03T05:42:13.226Z,23.6
2018-11-03T05:52:12.436Z,23.6
2018-11-03T06:02:11.659Z,23.7
2018-11-03T06:12:10.871Z,23.7
2018-11-03T06:22:10.093Z,23.7
2018-11-03T06:32:09.307Z,23.7
2018-11-03T06:42:08.540Z,23.7
2018-11-03T06:52:07.878Z,23.8
2018-11-03T07:02:06.959Z,23.8
2018-11-03T07:12:06.219Z,23.8
2018-11-03T07:22:05.395Z,23.8
2018-11-03T07:32:04.614Z,23.8
2018-11-03T07:42:03.832Z,23.8
2018-11-03T07:52:03.056Z,23.9
2018-11-03T08:02:02.272Z,23.9
2018-11-03T08:12:01.498Z,23.9
2018-11-03T08:22:00.710Z,23.9
2018-11-03T08:31:59.928Z,23.9
2018-11-03T08:41:59.140Z,23.9
2018-11-03T08:51:58.365Z,23.9
2018-11-03T09:01:57.578Z,23.9
2018-11-03T09:11:56.801Z,24
2018-11-03T09:21:56.233Z,23.9
2018-11-03T09:31:55.340Z,23.9
2018-11-03T09:41:54.454Z,24
2018-11-03T09:51:53.667Z,23.9
2018-11-03T10:01:52.889Z,24
2018-11-03T10:11:52.112Z,24.1
2018-11-03T10:21:51.332Z,24
2018-11-03T10:31:50.559Z,24.1
2018-11-03T10:41:49.763Z,24.1
2018-11-03T10:51:48.982Z,24.1
2018-11-03T11:01:48.200Z,24.1
2018-11-03T11:11:47.417Z,24.1
2018-11-03T11:21:46.629Z,24.1
2018-11-03T11:31:45.848Z,24.1
2018-11-03T11:41:45.076Z,24.1
2018-11-03T11:51:44.289Z,24.2
2018-11-03T12:01:43.502Z,24.2
2018-11-03T12:11:42.723Z,24.2
2018-11-03T12:21:41.986Z,24.1
2018-11-03T12:31:41.161Z,24.1
2018-11-03T12:41:40.383Z,24.1
2018-11-03T12:51:39.599Z,24.1
2018-11-03T13:01:38.814Z,24.1
2018-11-03T13:11:38.037Z,24.1
2018-11-03T13:21:37.246Z,24.1
2018-11-03T13:31:36.464Z,24.1
2018-11-03T13:41:35.688Z,24
2018-11-03T13:51:34.906Z,24
2018-11-03T14:01:34.117Z,24
2018-11-03T14:11:33.335Z,24
2018-11-03T14:21:32.551Z,24.1
2018-11-03T14:31:31.769Z,24
2018-11-03T14:41:31.041Z,24
2018-11-03T14:51:30.203Z,24
2018-11-03T15:01:29.425Z,23.9
2018-11-03T15:11:28.648Z,23.9
2018-11-03T15:21:27.864Z,23.9
2018-11-03T15:31:27.081Z,23.9
2018-11-03T15:41:26.407Z,23.9
2018-11-03T15:51:25.514Z,23.9
2018-11-03T16:01:24.731Z,23.9
2018-11-03T16:11:23.951Z,23.9
2018-11-03T16:21:23.165Z,23.9
2018-11-03T16:31:22.384Z,23.9
2018-11-03T16:41:21.594Z,23.9
2018-11-03T16:51:20.824Z,23.9
2018-11-03T17:01:20.039Z,23.9
2018-11-03T17:11:19.259Z,23.9
2018-11-03T17:21:18.472Z,23.9
2018-11-03T17:31:17.723Z,23.7
2018-11-03T17:41:16.917Z,23.9
2018-11-03T17:51:16.126Z,23.8
2018-11-03T18:01:15.373Z,23.8
2018-11-03T18:11:14.559Z,23.8
2018-11-03T18:21:13.777Z,23.8
2018-11-03T18:31:12.993Z,23.8
2018-11-03T18:41:12.257Z,23.8
2018-11-03T18:51:11.430Z,23.8
2018-11-03T19:01:10.643Z,23.9
2018-11-03T19:11:09.866Z,23.8
2018-11-03T19:21:09.088Z,23.7
2018-11-03T19:31:08.303Z,23.8
2018-11-03T19:41:07.569Z,23.8
2018-11-03T19:51:06.784Z,23.8
2018-11-03T20:01:05.990Z,23.8
2018-11-03T20:11:05.169Z,23.8
2018-11-03T20:21:04.396Z,23.8
2018-11-03T20:31:03.609Z,23.8
2018-11-03T20:41:02.830Z,23.8
2018-11-03T20:51:02.038Z,23.7
2018-11-03T21:01:01.256Z,23.7
2018-11-03T21:11:00.473Z,23.7
2018-11-03T21:20:59.695Z,23.7
2018-11-03T21:30:58.911Z,23.7
2018-11-03T21:40:58.130Z,23.7
2018-11-03T21:50:57.339Z,23.6
2018-11-03T22:00:56.567Z,23.6
2018-11-03T22:10:55.771Z,23.6
2018-11-03T22:20:54.993Z,23.6
2018-11-03T22:30:54.212Z,23.6
2018-11-03T22:40:53.418Z,23.6
2018-11-03T22:50:52.698Z,23.5
2018-11-03T23:00:51.860Z,23.5
2018-11-03T23:10:51.069Z,23.5
2018-11-03T23:20:50.288Z,23.5
2018-11-03T23:30:49.506Z,23.4
2018-11-03T23:40:48.724Z,23.5
2018-11-03T23:50:47.932Z,23.5
